Time;durP1;ratioP1;P1;durP2;ratioP2;P2;SDS_P1;SDS_P2;PMS_P1;PMS_P2;Temp;Humidity;BMP_temperature;BMP_pressure;BME280_temperature;BME280_humidity;BME280_pressure;Samples;Min_cycle;Max_cycle;Signal;HPM_P1;HPM_P2
2022/11/12 00:01:09;;;;;;;0.65;0.65;;;5.60;99.90;;;;;;5058455;28;20436;-70
2022/11/12 00:03:36;;;;;;;0.88;0.88;;;5.60;99.90;;;;;;5065345;28;20792;-71
2022/11/12 00:06:02;;;;;;;1.40;0.95;;;5.60;99.90;;;;;;5066354;28;20446;-71
2022/11/12 00:08:29;;;;;;;1.48;0.70;;;5.50;99.90;;;;;;5054618;28;20429;-71
2022/11/12 00:10:56;;;;;;;0.80;0.80;;;5.50;99.90;;;;;;5067058;28;20481;-71
2022/11/12 00:13:23;;;;;;;1.15;0.90;;;5.50;99.90;;;;;;5069596;28;20798;-72
2022/11/12 00:15:52;;;;;;;0.95;0.70;;;5.50;99.90;;;;;;5067548;28;20424;-71
2022/11/12 00:18:19;;;;;;;0.65;0.65;;;5.50;99.90;;;;;;5067271;28;20438;-71
2022/11/12 00:20:45;;;;;;;1.40;1.30;;;5.40;99.90;;;;;;5064006;28;20925;-71
2022/11/12 00:23:12;;;;;;;1.48;1.30;;;5.40;99.90;;;;;;5058207;28;20429;-71
2022/11/12 00:25:39;;;;;;;1.48;1.02;;;5.50;99.90;;;;;;5055162;28;20431;-71
2022/11/12 00:28:09;;;;;;;1.23;0.57;;;5.50;99.90;;;;;;5058676;28;20762;-71
2022/11/12 00:30:39;;;;;;;0.90;0.90;;;5.50;99.90;;;;;;5083465;28;20432;-71
2022/11/12 00:33:06;;;;;;;1.23;0.77;;;5.50;99.90;;;;;;5066798;28;20427;-71
2022/11/12 00:35:33;;;;;;;1.20;1.13;;;5.50;99.90;;;;;;5067708;28;20514;-71
2022/11/12 00:38:00;;;;;;;0.77;0.77;;;5.50;99.90;;;;;;5067537;28;20458;-71
2022/11/12 00:40:27;;;;;;;1.00;1.00;;;5.40;99.90;;;;;;5061361;28;20436;-71
2022/11/12 00:42:54;;;;;;;0.82;0.60;;;5.40;99.90;;;;;;5067330;28;20427;-71
2022/11/12 00:45:23;;;;;;;1.45;0.77;;;5.40;99.90;;;;;;5062809;28;20463;-71
2022/11/12 00:47:54;;;;;;;2.80;1.00;;;5.50;99.90;;;;;;5063424;28;20486;-71
2022/11/12 00:50:21;;;;;;;1.02;1.02;;;5.50;99.90;;;;;;5059667;28;20905;-71
2022/11/12 00:52:51;;;;;;;1.15;0.50;;;5.50;99.90;;;;;;5061854;28;20433;-72
2022/11/12 00:55:17;;;;;;;0.52;0.52;;;5.50;99.90;;;;;;5049179;28;20452;-71
2022/11/12 00:57:44;;;;;;;0.70;0.70;;;5.50;99.90;;;;;;5053298;28;20894;-71
2022/11/12 01:00:15;;;;;;;0.77;0.77;;;5.50;99.90;;;;;;5057816;28;20530;-71
2022/11/12 01:02:42;;;;;;;4.22;1.42;;;5.50;99.90;;;;;;5058842;28;20433;-71
2022/11/12 01:05:16;;;;;;;1.10;0.68;;;5.50;99.90;;;;;;5060845;28;20481;-71
2022/11/12 01:07:43;;;;;;;2.40;1.03;;;5.50;99.90;;;;;;5061991;28;20429;-71
2022/11/12 01:10:10;;;;;;;0.75;0.75;;;5.50;99.90;;;;;;5065149;28;20438;-71
2022/11/12 01:12:37;;;;;;;0.73;0.70;;;5.50;99.90;;;;;;5068269;28;20423;-71
2022/11/12 01:15:05;;;;;;;0.68;0.68;;;5.50;99.90;;;;;;5052654;28;20429;-71
2022/11/12 01:17:33;;;;;;;0.68;0.68;;;5.50;99.90;;;;;;5049762;28;20472;-71
2022/11/12 01:19:59;;;;;;;0.77;0.77;;;5.50;99.90;;;;;;5066387;28;20440;-71
2022/11/12 01:22:26;;;;;;;0.40;0.40;;;5.50;99.90;;;;;;5080566;28;20915;-72
2022/11/12 01:24:53;;;;;;;0.70;0.70;;;5.40;99.90;;;;;;5068162;28;20427;-71
2022/11/12 01:27:19;;;;;;;0.77;0.77;;;5.40;99.90;;;;;;5066301;28;20431;-71
2022/11/12 01:29:46;;;;;;;1.40;1.07;;;5.40;99.90;;;;;;5064594;28;20431;-71
2022/11/12 01:32:13;;;;;;;0.80;0.80;;;5.30;99.90;;;;;;5062080;28;20433;-71
2022/11/12 01:34:39;;;;;;;0.73;0.60;;;5.30;99.90;;;;;;5063824;28;20426;-72
2022/11/12 01:37:06;;;;;;;0.70;0.70;;;5.30;99.90;;;;;;5066174;28;20429;-71
2022/11/12 01:39:33;;;;;;;1.05;1.05;;;5.30;99.90;;;;;;5055821;28;20431;-71
2022/11/12 01:41:59;;;;;;;0.88;0.88;;;5.30;99.90;;;;;;5067487;28;20824;-71
2022/11/12 01:44:30;;;;;;;1.40;1.13;;;5.40;99.90;;;;;;5068100;28;20935;-71
2022/11/12 01:47:09;;;;;;;0.63;0.63;;;5.40;99.90;;;;;;5068433;28;20922;-71
2022/11/12 01:49:54;;;;;;;0.70;0.70;;;5.40;99.90;;;;;;5063030;28;20431;-71
2022/11/12 01:52:36;;;;;;;1.03;0.97;;;5.40;99.90;;;;;;5069427;28;20914;-71
2022/11/12 01:55:22;;;;;;;0.80;0.75;;;5.50;99.90;;;;;;5066116;28;20439;-71
2022/11/12 01:58:11;;;;;;;0.90;0.90;;;5.50;99.90;;;;;;5061474;28;20432;-71
2022/11/12 02:00:40;;;;;;;1.90;1.30;;;5.50;99.90;;;;;;5082654;28;20453;-71
2022/11/12 02:03:14;;;;;;;1.90;0.82;;;5.50;99.90;;;;;;5082767;28;20431;-72
2022/11/12 02:05:41;;;;;;;1.40;1.27;;;5.60;99.90;;;;;;5076272;28;20429;-71
2022/11/12 02:08:12;;;;;;;0.80;0.80;;;5.60;99.90;;;;;;5077561;28;20467;-71
2022/11/12 02:10:41;;;;;;;0.98;0.98;;;5.60;99.90;;;;;;5070723;28;20933;-71
2022/11/12 02:15:54;;;;;;;0.80;0.80;;;5.60;99.90;;;;;;5089105;28;20483;-72
2022/11/12 02:18:21;;;;;;;1.08;0.98;;;5.60;99.90;;;;;;5082586;28;20435;-72
2022/11/12 02:21:02;;;;;;;1.00;1.00;;;5.60;99.90;;;;;;5072933;28;20436;-72
2022/11/12 02:23:28;;;;;;;0.85;0.85;;;5.60;99.90;;;;;;5083105;28;20895;-72
2022/11/12 02:25:55;;;;;;;0.85;0.85;;;5.60;99.90;;;;;;5086465;28;20433;-71
2022/11/12 02:28:21;;;;;;;3.25;0.68;;;5.60;99.90;;;;;;5084262;28;20421;-71
2022/11/12 02:30:49;;;;;;;0.57;0.55;;;5.60;99.90;;;;;;5077554;28;20431;-71
2022/11/12 02:33:15;;;;;;;1.55;1.05;;;5.60;99.90;;;;;;5068996;28;20431;-71
2022/11/12 02:35:42;;;;;;;1.25;0.60;;;5.50;99.90;;;;;;5065674;28;20455;-72
2022/11/12 02:38:09;;;;;;;1.63;0.63;;;5.50;99.90;;;;;;5067218;28;20436;-71
2022/11/12 02:40:38;;;;;;;1.05;0.95;;;5.50;99.90;;;;;;5060828;28;20424;-71
2022/11/12 02:43:08;;;;;;;1.35;1.05;;;5.50;99.90;;;;;;5068587;28;20431;-71
2022/11/12 02:45:34;;;;;;;1.27;1.17;;;5.40;99.90;;;;;;5067601;28;20497;-71
2022/11/12 02:48:02;;;;;;;2.05;1.17;;;5.40;99.90;;;;;;5064002;28;20450;-71
2022/11/12 02:50:31;;;;;;;0.98;0.88;;;5.40;99.90;;;;;;5058917;28;20440;-71
2022/11/12 02:52:58;;;;;;;0.70;0.67;;;5.40;99.90;;;;;;5062813;28;20427;-71
2022/11/12 02:55:27;;;;;;;0.88;0.88;;;5.40;99.90;;;;;;5069018;28;20439;-71
2022/11/12 02:57:57;;;;;;;0.70;0.70;;;5.30;99.90;;;;;;5069091;28;20440;-72
2022/11/12 03:00:24;;;;;;;0.73;0.73;;;5.30;99.90;;;;;;5068405;28;20423;-71
2022/11/12 03:03:00;;;;;;;1.45;1.40;;;5.30;99.90;;;;;;5068964;28;20454;-71
2022/11/12 03:05:29;;;;;;;1.98;0.70;;;5.30;99.90;;;;;;5070750;28;20844;-71
2022/11/12 03:08:01;;;;;;;0.68;0.55;;;5.30;99.90;;;;;;5063443;28;20511;-70
2022/11/12 03:10:29;;;;;;;0.85;0.85;;;5.30;99.90;;;;;;5063456;28;20442;-71
2022/11/12 03:12:57;;;;;;;0.98;0.98;;;5.30;99.90;;;;;;5063542;28;20440;-71
2022/11/12 03:15:28;;;;;;;0.90;0.55;;;5.30;99.90;;;;;;5056158;28;20429;-71
2022/11/12 03:17:57;;;;;;;0.63;0.63;;;5.30;99.90;;;;;;5066848;28;20431;-71
2022/11/12 03:20:25;;;;;;;0.70;0.70;;;5.20;99.90;;;;;;5061970;28;20798;-71
2022/11/12 03:22:57;;;;;;;0.93;0.93;;;5.10;99.90;;;;;;5065982;28;20435;-71
2022/11/12 03:25:24;;;;;;;0.60;0.60;;;5.10;99.90;;;;;;5056364;28;20459;-71
2022/11/12 03:27:59;;;;;;;0.60;0.60;;;5.10;99.90;;;;;;5065284;28;20429;-71
2022/11/12 03:30:28;;;;;;;0.98;0.85;;;5.10;99.90;;;;;;5062834;28;20426;-71
2022/11/12 03:32:58;;;;;;;1.33;0.80;;;5.00;99.90;;;;;;5061121;28;20429;-71
2022/11/12 03:35:25;;;;;;;0.68;0.68;;;5.00;99.90;;;;;;5055045;28;20425;-71
2022/11/12 03:37:55;;;;;;;0.88;0.88;;;5.10;99.90;;;;;;5067697;28;20442;-71
2022/11/12 03:40:22;;;;;;;0.63;0.63;;;5.10;99.90;;;;;;5065829;28;20435;-71
2022/11/12 03:42:50;;;;;;;2.70;1.00;;;5.10;99.90;;;;;;5070263;28;21063;-71
2022/11/12 03:45:19;;;;;;;0.40;0.40;;;5.10;99.90;;;;;;5064994;28;20786;-71
2022/11/12 03:47:48;;;;;;;0.60;0.60;;;5.10;99.90;;;;;;5067345;28;20427;-71
2022/11/12 03:50:16;;;;;;;0.55;0.55;;;5.10;99.90;;;;;;5063697;28;20905;-72
2022/11/12 03:52:45;;;;;;;0.80;0.80;;;5.00;99.90;;;;;;5063028;28;20429;-71
2022/11/12 03:55:13;;;;;;;1.30;0.93;;;5.00;99.90;;;;;;5063108;28;20434;-71
2022/11/12 03:57:40;;;;;;;0.50;0.50;;;5.00;99.90;;;;;;5066178;28;20963;-71
2022/11/12 04:00:09;;;;;;;0.50;0.50;;;5.10;99.90;;;;;;5063424;28;20497;-71
2022/11/12 04:02:36;;;;;;;0.70;0.70;;;5.10;99.90;;;;;;5066380;28;21120;-71
2022/11/12 04:10:45;;;;;;;0.93;0.73;;;5.00;99.90;;;;;;5067932;28;20436;-71
2022/11/12 04:13:28;;;;;;;0.50;0.50;;;5.00;99.90;;;;;;5076734;28;20447;-71
2022/11/12 04:21:50;;;;;;;0.80;0.80;;;4.90;99.90;;;;;;5066790;28;20423;-71
2022/11/12 04:27:18;;;;;;;0.63;0.63;;;4.90;99.90;;;;;;5065703;28;20424;-71
2022/11/12 04:32:35;;;;;;;0.60;0.60;;;4.80;99.90;;;;;;5049894;28;20452;-71
2022/11/12 04:35:03;;;;;;;0.50;0.50;;;4.70;99.90;;;;;;5055126;28;20427;-71
2022/11/12 04:37:43;;;;;;;0.57;0.57;;;4.80;99.90;;;;;;5054671;28;20429;-71
2022/11/12 04:46:00;;;;;;;1.92;0.85;;;4.70;99.90;;;;;;5063755;28;20439;-71
2022/11/12 04:48:27;;;;;;;0.70;0.70;;;4.70;99.90;;;;;;5046756;28;20433;-71
2022/11/12 04:50:58;;;;;;;0.85;0.70;;;4.70;99.90;;;;;;5054449;28;20425;-71
2022/11/12 04:53:25;;;;;;;0.40;0.40;;;4.70;99.90;;;;;;5061363;28;20446;-71
2022/11/12 04:55:54;;;;;;;0.80;0.80;;;4.80;99.90;;;;;;5052388;28;20443;-72
2022/11/12 04:58:21;;;;;;;2.30;0.80;;;4.80;99.90;;;;;;5059370;28;20431;-71
2022/11/12 05:00:56;;;;;;;0.60;0.60;;;4.80;99.90;;;;;;5062110;28;20522;-71
2022/11/12 05:03:24;;;;;;;0.52;0.52;;;4.80;99.90;;;;;;5064227;28;20439;-72
2022/11/12 05:05:51;;;;;;;0.60;0.60;;;4.80;99.90;;;;;;5061221;28;21113;-71
2022/11/12 05:08:18;;;;;;;1.30;0.68;;;4.80;99.90;;;;;;5057011;28;20456;-71
2022/11/12 05:10:44;;;;;;;0.70;0.70;;;4.80;99.90;;;;;;5064859;28;20442;-71
2022/11/12 05:13:11;;;;;;;0.50;0.50;;;4.80;99.90;;;;;;5063843;28;20431;-71
2022/11/12 05:15:38;;;;;;;1.23;1.13;;;4.80;99.90;;;;;;5053484;28;20428;-71
2022/11/12 05:18:04;;;;;;;1.02;0.80;;;4.80;99.90;;;;;;5052569;28;20449;-71
2022/11/12 05:20:31;;;;;;;0.70;0.70;;;4.70;99.90;;;;;;5053588;28;21162;-71
2022/11/12 05:22:58;;;;;;;0.57;0.57;;;4.60;99.90;;;;;;5063782;28;20916;-71
2022/11/12 05:25:34;;;;;;;0.77;0.77;;;4.60;99.90;;;;;;5054755;28;20432;-71
2022/11/12 05:28:01;;;;;;;0.50;0.50;;;4.60;99.90;;;;;;5067539;28;20427;-71
2022/11/12 05:30:28;;;;;;;0.75;0.70;;;4.60;99.90;;;;;;5069972;28;20455;-71
2022/11/12 05:32:54;;;;;;;0.50;0.50;;;4.60;99.90;;;;;;5067913;28;20427;-71
2022/11/12 05:35:21;;;;;;;0.55;0.55;;;4.70;99.90;;;;;;5060589;28;20425;-70
2022/11/12 05:37:48;;;;;;;1.30;0.80;;;4.70;99.90;;;;;;5059752;28;20422;-71
2022/11/12 05:40:15;;;;;;;0.55;0.55;;;4.70;99.90;;;;;;5066187;28;20419;-71
2022/11/12 05:42:43;;;;;;;0.50;0.50;;;4.70;99.90;;;;;;5064422;28;20428;-71
2022/11/12 05:45:09;;;;;;;0.45;0.45;;;4.60;99.90;;;;;;5069723;28;20480;-71
2022/11/12 05:47:36;;;;;;;0.63;0.43;;;4.60;99.90;;;;;;5069710;28;20435;-71
2022/11/12 05:50:03;;;;;;;0.65;0.65;;;4.60;99.90;;;;;;5062553;28;20427;-71
2022/11/12 05:52:30;;;;;;;0.52;0.52;;;4.60;99.90;;;;;;5062188;28;20422;-71
2022/11/12 05:54:56;;;;;;;0.63;0.63;;;4.60;99.90;;;;;;5057379;28;20430;-71
2022/11/12 05:57:26;;;;;;;0.32;0.32;;;4.60;99.90;;;;;;5065008;28;20431;-71
2022/11/12 05:59:53;;;;;;;0.95;0.95;;;4.60;99.90;;;;;;5064670;28;20431;-72
2022/11/12 06:02:19;;;;;;;0.68;0.68;;;4.70;99.90;;;;;;5057493;28;20437;-71
2022/11/12 06:04:46;;;;;;;0.30;0.30;;;4.60;99.90;;;;;;5060667;28;20435;-71
2022/11/12 06:07:13;;;;;;;0.45;0.45;;;4.70;99.90;;;;;;5056548;28;20424;-71
2022/11/12 06:09:42;;;;;;;1.10;1.00;;;4.70;99.90;;;;;;5064563;28;20959;-71
2022/11/12 06:12:09;;;;;;;0.53;0.53;;;4.60;99.90;;;;;;5062004;28;20435;-70
2022/11/12 06:14:36;;;;;;;1.70;0.50;;;4.60;99.90;;;;;;5051460;28;20932;-70
2022/11/12 06:17:02;;;;;;;0.30;0.30;;;4.60;99.90;;;;;;5062927;28;20481;-70
2022/11/12 06:19:31;;;;;;;0.50;0.43;;;4.60;99.90;;;;;;5067790;28;20909;-70
2022/11/12 06:21:58;;;;;;;0.40;0.35;;;4.70;99.90;;;;;;5052437;28;20429;-71
2022/11/12 06:24:25;;;;;;;0.30;0.30;;;4.60;99.90;;;;;;5059028;28;20423;-70
2022/11/12 06:27:01;;;;;;;0.77;0.77;;;4.60;99.90;;;;;;5059165;28;20419;-70
2022/11/12 06:29:28;;;;;;;0.50;0.50;;;4.60;99.90;;;;;;5062577;28;20435;-70
2022/11/12 06:31:55;;;;;;;0.53;0.53;;;4.70;99.90;;;;;;5069165;28;20521;-71
2022/11/12 06:34:22;;;;;;;0.60;0.60;;;4.80;99.90;;;;;;5068394;28;20440;-70
2022/11/12 06:36:48;;;;;;;0.43;0.43;;;4.70;99.90;;;;;;5059882;28;20599;-70
2022/11/12 06:39:15;;;;;;;0.40;0.40;;;4.70;99.90;;;;;;5061692;28;20436;-70
2022/11/12 06:41:44;;;;;;;1.08;0.70;;;4.70;99.90;;;;;;5081579;28;20535;-72
2022/11/12 06:44:10;;;;;;;0.55;0.55;;;4.70;99.90;;;;;;5068026;28;20975;-72
2022/11/12 06:46:37;;;;;;;1.10;0.40;;;4.80;99.90;;;;;;5077838;28;20902;-72
2022/11/12 06:49:04;;;;;;;10.40;7.10;;;4.80;99.90;;;;;;5069652;28;20443;-72
2022/11/12 06:51:31;;;;;;;1.17;1.05;;;4.80;99.90;;;;;;5052572;28;20433;-72
2022/11/12 06:53:57;;;;;;;1.00;0.73;;;4.80;99.90;;;;;;5058887;28;20848;-71
2022/11/12 06:56:26;;;;;;;0.55;0.55;;;4.80;99.90;;;;;;5062952;28;20436;-71
2022/11/12 06:58:53;;;;;;;0.77;0.77;;;4.80;99.90;;;;;;5072063;28;20432;-71
2022/11/12 07:01:20;;;;;;;0.87;0.87;;;4.80;99.90;;;;;;5070327;28;20427;-71
2022/11/12 07:03:50;;;;;;;1.15;1.10;;;4.80;99.90;;;;;;5080887;28;20426;-72
2022/11/12 07:06:19;;;;;;;1.48;1.35;;;4.80;99.90;;;;;;5058555;28;20423;-71
2022/11/12 07:08:47;;;;;;;4.40;2.33;;;4.80;99.90;;;;;;5068820;28;20913;-71
2022/11/12 07:11:15;;;;;;;8.00;5.35;;;4.80;99.90;;;;;;5065523;28;20434;-71
2022/11/12 07:13:43;;;;;;;0.70;0.70;;;4.90;99.90;;;;;;5066861;28;20437;-71
2022/11/12 07:16:10;;;;;;;1.77;1.67;;;4.90;99.90;;;;;;5070500;28;20435;-72
2022/11/12 07:18:37;;;;;;;1.30;1.10;;;4.90;99.90;;;;;;5068949;28;20431;-71
2022/11/12 07:21:06;;;;;;;1.67;1.58;;;4.90;99.90;;;;;;5058382;28;20440;-71
2022/11/12 07:23:36;;;;;;;2.60;1.63;;;4.90;99.90;;;;;;5063941;28;20902;-71
2022/11/12 07:26:04;;;;;;;1.05;1.05;;;5.00;99.90;;;;;;5059543;28;20423;-71
2022/11/12 07:28:31;;;;;;;0.95;0.95;;;5.10;99.90;;;;;;5069156;28;20427;-71
2022/11/12 07:31:03;;;;;;;1.20;1.10;;;5.20;99.90;;;;;;5055628;28;20430;-71
2022/11/12 07:33:29;;;;;;;1.55;1.45;;;5.20;99.90;;;;;;5058490;28;20423;-71
2022/11/12 07:36:07;;;;;;;1.85;0.88;;;5.30;99.90;;;;;;5069995;28;20427;-72
2022/11/12 07:38:36;;;;;;;1.50;1.13;;;5.30;99.90;;;;;;5064749;28;20959;-71
2022/11/12 07:41:16;;;;;;;1.02;0.93;;;5.40;99.90;;;;;;5059007;28;20551;-71
2022/11/12 07:43:45;;;;;;;1.50;1.40;;;5.50;99.90;;;;;;5049923;28;20448;-71
2022/11/12 07:46:20;;;;;;;0.85;0.85;;;5.50;99.90;;;;;;5064063;28;20990;-72
2022/11/12 07:48:47;;;;;;;1.25;1.15;;;5.50;99.90;;;;;;5069021;28;20423;-73
2022/11/12 07:51:17;;;;;;;1.50;1.50;;;5.50;99.90;;;;;;5065517;28;20429;-72
2022/11/12 07:53:45;;;;;;;1.65;1.55;;;5.50;99.90;;;;;;5055828;28;20433;-73
2022/11/12 07:56:23;;;;;;;4.15;2.92;;;5.60;99.90;;;;;;5068331;28;20427;-73
2022/11/12 07:58:51;;;;;;;2.60;2.13;;;5.60;99.90;;;;;;5071264;28;20438;-72
2022/11/12 08:01:29;;;;;;;2.08;1.88;;;5.60;99.90;;;;;;5067624;28;20470;-73
2022/11/12 08:03:56;;;;;;;1.10;1.00;;;5.60;99.90;;;;;;5056432;28;20838;-72
2022/11/12 08:06:23;;;;;;;1.25;1.17;;;5.70;99.90;;;;;;5066367;28;20435;-73
2022/11/12 08:08:54;;;;;;;1.42;1.42;;;5.80;99.90;;;;;;5062633;28;20455;-72
2022/11/12 08:11:21;;;;;;;2.50;2.20;;;5.80;99.90;;;;;;5064961;28;20435;-72
2022/11/12 08:13:48;;;;;;;1.48;1.30;;;5.80;99.90;;;;;;5063615;28;20448;-72
2022/11/12 08:16:15;;;;;;;3.55;1.52;;;5.80;99.90;;;;;;5063239;28;20549;-73
2022/11/12 08:18:42;;;;;;;9.23;4.57;;;5.90;99.90;;;;;;5067172;28;20428;-72
2022/11/12 08:21:12;;;;;;;2.20;2.00;;;5.90;99.90;;;;;;5070542;28;20436;-72
2022/11/12 08:23:39;;;;;;;3.45;1.92;;;5.70;99.90;;;;;;5054457;28;20427;-72
2022/11/12 08:26:15;;;;;;;5.10;3.47;;;5.80;99.90;;;;;;5062342;28;20437;-72
2022/11/12 08:28:42;;;;;;;1.80;1.30;;;5.90;99.90;;;;;;5060643;28;20446;-73
2022/11/12 08:31:12;;;;;;;1.80;1.70;;;6.00;99.90;;;;;;5083147;28;20427;-72
2022/11/12 08:33:40;;;;;;;2.30;1.67;;;6.10;99.90;;;;;;5069745;28;20427;-72
2022/11/12 08:36:12;;;;;;;7.35;4.45;;;6.30;99.90;;;;;;5069056;28;20438;-72
2022/11/12 08:38:39;;;;;;;2.20;1.92;;;6.10;99.90;;;;;;5055903;28;20434;-72
2022/11/12 08:41:10;;;;;;;1.20;1.10;;;6.20;99.90;;;;;;5060309;28;21062;-72
2022/11/12 08:43:38;;;;;;;1.55;1.45;;;6.40;99.90;;;;;;5053548;28;20442;-72
2022/11/12 08:46:05;;;;;;;1.42;1.17;;;6.40;99.90;;;;;;5067295;28;20425;-72
2022/11/12 08:48:33;;;;;;;2.00;1.80;;;6.50;99.90;;;;;;5055797;28;20475;-73
2022/11/12 08:51:01;;;;;;;2.10;2.00;;;6.40;99.90;;;;;;5063453;28;20427;-72
2022/11/12 08:53:28;;;;;;;1.45;1.35;;;6.40;99.90;;;;;;5061294;28;20922;-73
2022/11/12 08:55:55;;;;;;;2.40;2.03;;;6.40;99.90;;;;;;5067776;28;20427;-73
2022/11/12 08:58:23;;;;;;;3.55;2.40;;;6.50;99.90;;;;;;5065563;28;20432;-73
2022/11/12 09:00:52;;;;;;;2.28;1.63;;;6.40;99.90;;;;;;5067658;28;20457;-72
2022/11/12 09:03:21;;;;;;;3.35;1.63;;;6.40;99.90;;;;;;5069425;28;20961;-72
2022/11/12 09:05:48;;;;;;;1.60;1.50;;;6.50;99.90;;;;;;5065519;28;20835;-73
2022/11/12 09:08:18;;;;;;;2.28;2.05;;;6.50;99.90;;;;;;5059781;28;20423;-73
2022/11/12 09:10:45;;;;;;;2.72;2.03;;;6.50;99.90;;;;;;5068119;28;21093;-72
2022/11/12 09:13:13;;;;;;;2.55;2.10;;;6.50;99.90;;;;;;5066772;28;20436;-72
2022/11/12 09:15:46;;;;;;;2.13;1.53;;;6.30;99.90;;;;;;5054864;28;20460;-73
2022/11/12 09:18:16;;;;;;;1.88;1.75;;;6.40;99.90;;;;;;5060950;28;20435;-73
2022/11/12 09:20:43;;;;;;;3.95;2.20;;;6.50;99.90;;;;;;5062733;28;20423;-72
2022/11/12 09:23:13;;;;;;;2.63;1.70;;;6.40;99.90;;;;;;5059852;28;20434;-73
2022/11/12 09:25:42;;;;;;;1.55;1.45;;;6.40;1.00;;;;;;5068523;28;20554;-72
2022/11/12 09:28:16;;;;;;;2.47;2.30;;;6.40;1.00;;;;;;5082637;28;20418;-72
2022/11/12 09:30:50;;;;;;;1.92;1.83;;;6.40;1.00;;;;;;5061626;28;20925;-73
2022/11/12 09:33:22;;;;;;;3.92;2.67;;;6.40;1.00;;;;;;5058451;28;20532;-73
2022/11/12 09:35:50;;;;;;;2.33;2.13;;;6.40;1.00;;;;;;5057472;28;20433;-73
2022/11/12 09:38:21;;;;;;;2.85;2.60;;;6.40;1.00;;;;;;5068611;28;20435;-73
2022/11/12 09:40:50;;;;;;;2.42;1.75;;;6.40;1.00;;;;;;5068551;28;20427;-73
2022/11/12 09:43:17;;;;;;;3.30;1.70;;;6.40;1.00;;;;;;5061162;28;20624;-73
2022/11/12 09:45:46;;;;;;;2.17;1.90;;;6.50;1.00;;;;;;5060427;28;20448;-72
2022/11/12 09:48:38;;;;;;;4.68;2.30;;;6.50;1.00;;;;;;5067224;28;20909;-73
2022/11/12 09:51:15;;;;;;;2.40;2.20;;;6.60;1.00;;;;;;5057653;28;20429;-73
2022/11/12 09:53:47;;;;;;;2.90;2.20;;;6.70;1.00;;;;;;5067461;28;20428;-73
2022/11/12 09:56:20;;;;;;;4.20;2.33;;;6.70;1.00;;;;;;5068883;28;20948;-74
2022/11/12 09:58:51;;;;;;;1.47;1.37;;;6.70;1.00;;;;;;5069384;28;20427;-73
2022/11/12 10:01:24;;;;;;;2.40;2.20;;;6.80;1.00;;;;;;5066623;28;20432;-73
2022/11/12 10:04:06;;;;;;;1.80;1.70;;;6.80;1.00;;;;;;5064591;28;20472;-73
2022/11/12 10:06:48;;;;;;;2.05;1.75;;;6.90;99.90;;;;;;5056620;28;20950;-73
2022/11/12 10:09:31;;;;;;;1.90;1.80;;;6.90;99.90;;;;;;5070956;28;20423;-73
2022/11/12 10:12:33;;;;;;;2.22;1.92;;;6.90;99.90;;;;;;5068566;28;20429;-73
2022/11/12 10:19:00;;;;;;;2.63;1.50;;;6.90;99.90;;;;;;5055002;28;20435;-73
2022/11/12 10:21:33;;;;;;;3.22;2.65;;;6.90;99.90;;;;;;5065339;28;20427;-73
2022/11/12 10:24:01;;;;;;;2.13;2.00;;;6.90;99.90;;;;;;5072496;28;20427;-74
2022/11/12 10:26:31;;;;;;;1.92;1.70;;;6.90;99.90;;;;;;5061992;28;20434;-73
2022/11/12 10:29:07;;;;;;;2.17;1.58;;;7.10;99.90;;;;;;5066353;28;20436;-73
2022/11/12 10:31:33;;;;;;;2.22;1.30;;;7.10;99.90;;;;;;5058708;28;20433;-73
2022/11/12 10:34:12;;;;;;;1.98;1.77;;;7.20;99.90;;;;;;5072179;28;20808;-73
2022/11/12 10:36:55;;;;;;;2.13;1.80;;;7.30;99.90;;;;;;5069534;28;20429;-73
2022/11/12 10:39:38;;;;;;;2.47;1.30;;;7.30;99.90;;;;;;5072937;28;20557;-73
2022/11/12 10:42:11;;;;;;;2.28;1.60;;;7.30;99.90;;;;;;5072210;28;20797;-73
2022/11/12 10:44:39;;;;;;;2.05;1.60;;;7.20;99.90;;;;;;5064409;28;20981;-73
2022/11/12 10:47:23;;;;;;;2.13;1.92;;;7.20;99.90;;;;;;5061139;28;20429;-73
2022/11/12 10:50:28;;;;;;;2.05;1.77;;;7.30;99.90;;;;;;5062308;28;20429;-74
2022/11/12 10:52:58;;;;;;;1.80;1.70;;;7.20;99.90;;;;;;5034869;28;20499;-74
2022/11/12 10:55:28;;;;;;;1.38;1.27;;;7.20;99.90;;;;;;5057652;28;20435;-74
2022/11/12 10:58:10;;;;;;;2.03;1.80;;;7.30;99.90;;;;;;5060928;28;20431;-73
2022/11/12 11:01:00;;;;;;;2.70;1.70;;;7.30;99.90;;;;;;5072269;28;20427;-73
2022/11/12 11:03:35;;;;;;;2.27;1.83;;;7.40;99.90;;;;;;5071768;28;20431;-73
2022/11/12 11:06:05;;;;;;;1.50;1.40;;;7.30;99.90;;;;;;5059457;28;20426;-73
2022/11/12 11:08:34;;;;;;;2.22;2.03;;;7.40;99.90;;;;;;5060397;28;20433;-74
2022/11/12 11:11:27;;;;;;;2.40;2.22;;;7.50;99.90;;;;;;5067326;28;20445;-74
2022/11/12 11:13:57;;;;;;;2.05;1.95;;;7.60;99.90;;;;;;5058274;28;20431;-74
2022/11/12 11:16:28;;;;;;;1.40;1.30;;;7.60;99.90;;;;;;5071253;28;21369;-74
2022/11/12 11:18:58;;;;;;;2.90;1.88;;;7.70;99.90;;;;;;5069073;28;20439;-74
2022/11/12 11:21:28;;;;;;;4.78;2.53;;;7.80;99.90;;;;;;5070242;28;20443;-73
2022/11/12 11:24:06;;;;;;;2.20;2.00;;;7.70;99.90;;;;;;5071785;28;20605;-73
2022/11/12 11:26:50;;;;;;;1.88;1.77;;;7.90;99.90;;;;;;5067529;28;20428;-73
2022/11/12 11:30:04;;;;;;;3.25;1.90;;;7.90;99.90;;;;;;5062834;28;20483;-73
2022/11/12 11:33:08;;;;;;;5.18;2.40;;;7.80;99.90;;;;;;5057793;28;20431;-73
2022/11/12 11:35:44;;;;;;;2.58;2.40;;;7.80;99.90;;;;;;5071298;28;20431;-73
2022/11/12 11:38:41;;;;;;;2.30;2.10;;;8.00;99.90;;;;;;5059333;28;20471;-73
2022/11/12 11:41:31;;;;;;;1.45;1.35;;;8.10;99.90;;;;;;5053968;28;20429;-73
2022/11/12 11:44:03;;;;;;;2.20;2.00;;;8.30;99.90;;;;;;5056578;28;20433;-73
2022/11/12 11:46:56;;;;;;;2.60;2.38;;;8.20;99.90;;;;;;5053558;28;21022;-73
2022/11/12 11:49:44;;;;;;;2.38;2.28;;;7.70;99.90;;;;;;5058944;28;20792;-73
2022/11/12 11:52:14;;;;;;;2.13;1.98;;;7.70;99.90;;;;;;5050961;28;20429;-73
2022/11/12 11:54:57;;;;;;;2.50;2.17;;;7.70;99.90;;;;;;5067272;28;20428;-74
2022/11/12 11:57:36;;;;;;;3.50;2.27;;;7.90;99.90;;;;;;5052782;28;20912;-74
2022/11/12 12:00:20;;;;;;;2.92;2.63;;;8.00;99.90;;;;;;5055052;28;20436;-73
2022/11/12 12:03:00;;;;;;;2.33;2.22;;;8.20;99.90;;;;;;5053822;28;20429;-73
2022/11/12 12:05:41;;;;;;;2.67;2.10;;;8.30;99.90;;;;;;5062598;28;20431;-74
2022/11/12 12:08:26;;;;;;;1.85;1.75;;;8.30;99.90;;;;;;5056128;28;20432;-73
2022/11/12 12:11:12;;;;;;;2.45;1.90;;;8.30;99.90;;;;;;5068942;28;20427;-73
2022/11/12 12:13:54;;;;;;;2.03;1.40;;;8.40;99.90;;;;;;5061265;28;20429;-74
2022/11/12 12:16:42;;;;;;;2.88;2.58;;;8.10;99.90;;;;;;5070877;28;20921;-73
2022/11/12 12:19:47;;;;;;;2.38;1.98;;;8.20;99.90;;;;;;5063528;28;20438;-74
2022/11/12 12:22:28;;;;;;;2.03;1.92;;;8.40;99.90;;;;;;5011599;28;20790;-73
2022/11/12 12:25:00;;;;;;;2.15;2.05;;;8.70;99.90;;;;;;5063201;28;20423;-74
2022/11/12 12:27:33;;;;;;;3.90;2.20;;;8.70;99.90;;;;;;5064122;28;20485;-74
2022/11/12 12:30:16;;;;;;;3.00;1.90;;;8.80;99.90;;;;;;5065623;28;21158;-73
2022/11/12 12:32:53;;;;;;;3.05;2.75;;;9.00;99.90;;;;;;5065964;28;20427;-74
2022/11/12 12:35:35;;;;;;;2.63;2.28;;;9.00;99.90;;;;;;5050368;28;20447;-74
2022/11/12 12:38:14;;;;;;;2.47;2.28;;;9.00;99.90;;;;;;5050211;28;20437;-74
2022/11/12 12:40:53;;;;;;;2.58;2.33;;;8.90;99.90;;;;;;5059672;28;20435;-73
2022/11/12 12:43:45;;;;;;;2.10;1.73;;;8.80;99.90;;;;;;5058590;28;20442;-73
2022/11/12 12:46:14;;;;;;;2.88;2.38;;;8.70;99.90;;;;;;5057662;28;20425;-73
2022/11/12 12:48:43;;;;;;;3.92;2.33;;;8.60;99.90;;;;;;5068028;28;20431;-74
2022/11/12 12:51:11;;;;;;;2.90;1.80;;;8.60;99.90;;;;;;5055369;28;20456;-73
2022/11/12 12:53:39;;;;;;;2.05;1.65;;;8.80;99.90;;;;;;5064757;28;20435;-73
2022/11/12 12:56:31;;;;;;;3.00;2.47;;;8.70;99.90;;;;;;5067679;28;20510;-74
2022/11/12 12:59:02;;;;;;;2.00;1.87;;;8.80;99.90;;;;;;5069152;28;20487;-73
2022/11/12 13:01:33;;;;;;;1.83;1.73;;;8.80;99.90;;;;;;5066538;28;20457;-73
2022/11/12 13:04:02;;;;;;;3.83;2.47;;;8.80;99.90;;;;;;5085087;28;20902;-74
2022/11/12 13:06:37;;;;;;;3.35;3.05;;;8.80;99.90;;;;;;5066469;28;20427;-73
2022/11/12 13:09:15;;;;;;;3.22;2.92;;;8.90;99.90;;;;;;5070574;28;20424;-73
2022/11/12 13:14:30;;;;;;;2.42;1.95;;;8.80;99.90;;;;;;5067797;28;20438;-73
2022/11/12 13:16:58;;;;;;;2.40;2.20;;;8.90;99.90;;;;;;5065354;28;20431;-73
2022/11/12 13:19:27;;;;;;;2.13;1.92;;;8.70;99.90;;;;;;5061697;28;20775;-73
2022/11/12 13:22:15;;;;;;;1.70;1.60;;;8.60;99.90;;;;;;5064103;28;20433;-73
2022/11/12 13:25:01;;;;;;;2.75;2.45;;;8.80;99.90;;;;;;5052127;28;20440;-73
2022/11/12 13:27:43;;;;;;;2.08;1.88;;;8.70;99.90;;;;;;5067874;28;20436;-73
2022/11/12 13:30:12;;;;;;;2.63;2.42;;;8.70;99.90;;;;;;5064372;28;20518;-74
2022/11/12 13:32:40;;;;;;;3.35;2.72;;;8.60;99.90;;;;;;5068061;28;20794;-73
2022/11/12 13:35:25;;;;;;;2.00;1.88;;;8.60;99.90;;;;;;5083217;28;20428;-73
2022/11/12 13:38:07;;;;;;;3.38;2.75;;;8.60;99.90;;;;;;5061835;28;20427;-73
2022/11/12 13:40:44;;;;;;;2.53;2.33;;;8.60;99.90;;;;;;5062136;28;20960;-73
2022/11/12 13:43:14;;;;;;;5.15;3.17;;;8.60;99.90;;;;;;5053999;28;20437;-74
2022/11/12 13:45:49;;;;;;;3.10;2.80;;;8.60;99.90;;;;;;5053946;28;20436;-74
2022/11/12 13:48:24;;;;;;;2.88;2.67;;;8.50;99.90;;;;;;5055419;28;20447;-74
2022/11/12 13:50:56;;;;;;;2.83;2.38;;;8.50;99.90;;;;;;5061318;28;20745;-74
2022/11/12 13:53:25;;;;;;;2.85;2.35;;;8.60;99.90;;;;;;5069038;28;20506;-73